createdAt,value
2019-06-15T00:01:58.712Z,13.60
2019-06-15T00:04:32.458Z,14.90
2019-06-15T00:07:07.353Z,15.20
2019-06-15T00:09:38.562Z,14.10
2019-06-15T00:12:11.533Z,14.83
2019-06-15T00:14:44.424Z,14.93
2019-06-15T00:17:20.159Z,14.70
2019-06-15T00:19:51.620Z,14.23
2019-06-15T00:22:25.275Z,14.47
2019-06-15T00:25:00.397Z,14.37
2019-06-15T00:27:36.157Z,14.93
2019-06-15T00:30:10.499Z,13.57
2019-06-15T00:32:56.403Z,14.33
2019-06-15T00:35:39.386Z,13.87
2019-06-15T00:38:10.775Z,14.47
2019-06-15T00:40:44.689Z,13.47
2019-06-15T00:43:18.614Z,14.53
2019-06-15T00:45:51.583Z,13.60
2019-06-15T00:48:34.876Z,13.37
2019-06-15T00:51:06.812Z,13.50
2019-06-15T00:53:38.888Z,12.77
2019-06-15T00:56:12.749Z,13.03
2019-06-15T00:58:58.702Z,13.20
2019-06-15T01:01:35.460Z,12.17
2019-06-15T01:04:08.672Z,12.37
2019-06-15T01:06:40.676Z,12.90
2019-06-15T01:09:13.770Z,12.97
2019-06-15T01:11:48.203Z,11.67
2019-06-15T01:14:23.709Z,12.37
2019-06-15T01:16:57.731Z,12.70
2019-06-15T01:19:29.924Z,13.67
2019-06-15T01:22:03.125Z,12.63
2019-06-15T01:24:35.120Z,12.60
2019-06-15T01:27:07.129Z,12.37
2019-06-15T01:29:40.953Z,11.67
2019-06-15T01:32:14.768Z,12.20
2019-06-15T01:34:49.244Z,12.17
2019-06-15T01:37:22.998Z,12.83
2019-06-15T01:39:55.048Z,12.50
2019-06-15T01:42:28.974Z,13.60
2019-06-15T01:45:02.878Z,14.87
2019-06-15T01:47:36.540Z,12.23
2019-06-15T01:50:10.394Z,12.93
2019-06-15T01:52:41.886Z,13.00
2019-06-15T01:55:28.479Z,12.73
2019-06-15T01:58:01.945Z,13.50
2019-06-15T02:00:36.499Z,12.60
2019-06-15T02:03:07.939Z,12.63
2019-06-15T02:05:41.210Z,15.10
2019-06-15T02:08:14.994Z,12.60
2019-06-15T02:10:47.205Z,13.67
2019-06-15T02:13:19.249Z,13.53
2019-06-15T02:15:52.242Z,14.07
2019-06-15T02:18:25.281Z,14.00
2019-06-15T02:20:58.100Z,12.77
2019-06-15T02:23:31.201Z,13.50
2019-06-15T02:26:03.319Z,13.67
2019-06-15T02:28:36.447Z,14.10
2019-06-15T02:31:10.175Z,14.43
2019-06-15T02:33:42.241Z,12.40
2019-06-15T02:36:14.422Z,13.30
2019-06-15T02:38:48.196Z,12.00
2019-06-15T02:41:23.984Z,12.23
2019-06-15T02:43:56.648Z,13.47
2019-06-15T02:46:28.406Z,12.43
2019-06-15T02:49:00.471Z,13.63
2019-06-15T02:51:33.780Z,13.30
2019-06-15T02:54:07.216Z,15.23
2019-06-15T02:56:40.402Z,14.57
2019-06-15T02:59:13.324Z,12.87
2019-06-15T03:01:46.299Z,12.90
2019-06-15T03:04:19.383Z,12.37
2019-06-15T03:06:53.583Z,13.10
2019-06-15T03:09:26.344Z,12.57
2019-06-15T03:12:01.043Z,12.50
2019-06-15T03:14:32.510Z,13.77
2019-06-15T03:17:04.550Z,13.03
2019-06-15T03:19:37.558Z,10.63
2019-06-15T03:22:09.628Z,12.03
2019-06-15T03:24:42.595Z,12.27
2019-06-15T03:27:15.258Z,13.47
2019-06-15T03:29:49.260Z,12.80
2019-06-15T03:32:23.549Z,11.00
2019-06-15T03:34:56.433Z,12.73
2019-06-15T03:37:29.664Z,11.80
2019-06-15T03:40:03.701Z,12.07
2019-06-15T03:42:37.542Z,10.73
2019-06-15T03:45:11.751Z,14.07
2019-06-15T03:47:52.861Z,11.50
2019-06-15T03:50:34.451Z,12.80
2019-06-15T03:53:08.582Z,12.57
2019-06-15T03:55:41.554Z,11.83
2019-06-15T03:58:14.782Z,11.50
2019-06-15T04:00:54.376Z,11.57
2019-06-15T04:03:28.607Z,12.60
2019-06-15T04:06:00.837Z,12.43
2019-06-15T04:08:33.830Z,11.50
2019-06-15T04:11:06.783Z,12.77
2019-06-15T04:13:38.608Z,11.37
2019-06-15T04:16:10.940Z,11.97
2019-06-15T04:18:44.993Z,11.80
2019-06-15T04:21:17.808Z,11.73
2019-06-15T04:23:50.796Z,10.47
2019-06-15T04:26:35.302Z,10.73
2019-06-15T04:28:57.996Z,11.53
2019-06-15T04:31:31.030Z,11.93
2019-06-15T04:34:03.893Z,11.23
2019-06-15T04:36:39.517Z,10.77
2019-06-15T04:39:13.053Z,11.37
2019-06-15T04:41:46.688Z,10.93
2019-06-15T04:44:17.902Z,12.40
2019-06-15T04:46:49.873Z,10.50
2019-06-15T04:49:25.561Z,10.90
2019-06-15T04:51:58.914Z,11.30
2019-06-15T04:54:30.970Z,11.77
2019-06-15T04:57:03.986Z,12.03
2019-06-15T04:59:36.032Z,11.60
2019-06-15T05:02:08.081Z,12.03
2019-06-15T05:04:41.099Z,11.30
2019-06-15T05:07:14.752Z,13.30
2019-06-15T05:09:46.158Z,20.50
2019-06-15T05:12:20.135Z,14.87
2019-06-15T05:14:52.104Z,15.90
2019-06-15T05:17:25.096Z,12.70
2019-06-15T05:19:57.164Z,11.30
2019-06-15T05:22:29.021Z,12.50
2019-06-15T05:25:05.262Z,10.50
2019-06-15T05:27:36.988Z,11.07
2019-06-15T05:30:49.888Z,10.23
2019-06-15T05:33:21.259Z,10.30
2019-06-15T05:35:55.965Z,10.57
2019-06-15T05:38:27.400Z,10.00
2019-06-15T05:41:19.579Z,10.30
2019-06-15T05:43:53.215Z,9.43
2019-06-15T05:46:25.369Z,9.33
2019-06-15T05:48:58.462Z,9.50
2019-06-15T05:51:31.222Z,9.53
2019-06-15T05:54:05.914Z,8.60
2019-06-15T05:56:37.340Z,9.73
2019-06-15T05:59:11.770Z,8.90
2019-06-15T06:01:45.464Z,9.93
2019-06-15T06:04:19.174Z,9.03
2019-06-15T06:06:52.412Z,9.50
2019-06-15T06:09:25.201Z,8.87
2019-06-15T06:11:57.400Z,8.87
2019-06-15T06:14:30.390Z,10.47
2019-06-15T06:17:03.406Z,9.23
2019-06-15T06:19:36.381Z,10.10
2019-06-15T06:22:09.365Z,9.27
2019-06-15T06:24:42.349Z,10.60
2019-06-15T06:27:14.418Z,9.33
2019-06-15T06:29:50.158Z,10.10
2019-06-15T06:32:22.371Z,9.93
2019-06-15T06:34:55.512Z,9.70
2019-06-15T06:37:29.551Z,8.83
2019-06-15T06:40:07.519Z,9.47
2019-06-15T06:42:39.468Z,9.77
2019-06-15T06:45:15.254Z,9.00
2019-06-15T06:48:03.171Z,10.37
2019-06-15T06:50:41.647Z,9.70
2019-06-15T06:53:12.887Z,9.43
2019-06-15T06:55:54.213Z,9.50
2019-06-15T06:58:25.617Z,13.80
2019-06-15T07:00:57.675Z,9.47
2019-06-15T07:03:30.651Z,9.03
2019-06-15T07:06:04.586Z,8.10
2019-06-15T07:08:37.583Z,8.43
2019-06-15T07:11:13.315Z,8.03
2019-06-15T07:13:47.642Z,8.53
2019-06-15T07:16:21.765Z,8.30
2019-06-15T07:18:54.739Z,8.30
2019-06-15T07:21:26.802Z,7.43
2019-06-15T07:23:59.791Z,7.80
2019-06-15T07:26:33.242Z,8.77
2019-06-15T07:29:05.133Z,8.17
2019-06-15T07:31:38.765Z,7.83
2019-06-15T07:34:11.790Z,7.80
2019-06-15T07:36:44.764Z,7.80
2019-06-15T07:39:17.998Z,7.70
2019-06-15T07:41:50.990Z,7.23
2019-06-15T07:44:23.961Z,7.53
2019-06-15T07:46:57.936Z,7.47
2019-06-15T07:49:29.948Z,8.40
2019-06-15T07:52:02.032Z,8.27
2019-06-15T07:54:36.240Z,7.73
2019-06-15T07:57:11.785Z,7.87
2019-06-15T07:59:46.968Z,7.50
2019-06-15T08:02:20.133Z,8.27
2019-06-15T08:04:53.147Z,7.80
2019-06-15T08:07:26.366Z,7.43
2019-06-15T08:09:58.170Z,8.13
2019-06-15T08:12:30.997Z,7.70
2019-06-15T08:15:05.703Z,8.57
2019-06-15T08:17:37.519Z,7.70
2019-06-15T08:20:10.104Z,8.60
2019-06-15T08:22:52.044Z,8.50
2019-06-15T08:25:34.779Z,8.33
2019-06-15T08:28:08.118Z,8.07
2019-06-15T08:30:42.515Z,7.80
2019-06-15T08:33:14.090Z,8.10
2019-06-15T08:35:46.277Z,8.33
2019-06-15T08:38:26.060Z,8.57
2019-06-15T08:41:05.971Z,8.40
2019-06-15T08:43:38.145Z,6.97
2019-06-15T08:46:11.376Z,7.60
2019-06-15T08:48:45.200Z,7.80
2019-06-15T08:51:17.302Z,7.90
2019-06-15T08:53:51.187Z,8.07
2019-06-15T08:56:26.915Z,6.83
2019-06-15T08:58:59.311Z,7.50
2019-06-15T09:01:33.239Z,7.87
2019-06-15T09:04:07.331Z,7.27
2019-06-15T09:06:41.091Z,7.30
2019-06-15T09:09:15.999Z,6.80
2019-06-15T09:11:48.271Z,7.07
2019-06-15T09:14:20.330Z,6.90
2019-06-15T09:16:54.475Z,7.57
2019-06-15T09:19:27.550Z,7.03
2019-06-15T09:22:03.190Z,7.47
2019-06-15T09:24:38.174Z,7.10
2019-06-15T09:27:11.287Z,6.87
2019-06-15T09:29:42.617Z,5.80
2019-06-15T09:32:15.524Z,7.60
2019-06-15T09:34:49.590Z,7.20
2019-06-15T09:37:25.236Z,6.33
2019-06-15T09:39:59.258Z,6.10
2019-06-15T09:42:31.652Z,7.50
2019-06-15T09:45:08.025Z,7.27
2019-06-15T09:47:40.473Z,7.20
2019-06-15T09:50:13.570Z,7.20
2019-06-15T09:53:01.128Z,6.57
2019-06-15T09:55:50.358Z,6.47
2019-06-15T09:58:24.531Z,6.67
2019-06-15T10:00:58.490Z,6.70
2019-06-15T10:03:31.009Z,6.00
2019-06-15T10:06:03.719Z,6.97
2019-06-15T10:08:37.721Z,6.50
2019-06-15T10:11:12.493Z,6.70
2019-06-15T10:13:44.790Z,6.87
2019-06-15T10:16:18.918Z,6.63
2019-06-15T10:18:51.782Z,6.80
2019-06-15T10:21:24.595Z,6.53
2019-06-15T10:23:58.016Z,6.50
2019-06-15T10:26:31.844Z,5.90
2019-06-15T10:29:05.193Z,6.97
2019-06-15T10:31:40.705Z,6.37
2019-06-15T10:34:14.032Z,6.10
2019-06-15T10:36:46.950Z,6.93
2019-06-15T10:39:19.547Z,6.33
2019-06-15T10:41:53.607Z,6.27
2019-06-15T10:44:27.457Z,6.40
2019-06-15T10:46:59.718Z,7.30
2019-06-15T10:49:32.920Z,7.37
2019-06-15T10:52:07.032Z,6.67
2019-06-15T10:54:42.824Z,6.57
2019-06-15T10:57:16.930Z,6.13
2019-06-15T10:59:57.492Z,6.50
2019-06-15T11:02:25.180Z,6.83
2019-06-15T11:04:57.970Z,6.30
2019-06-15T11:07:31.843Z,6.83
2019-06-15T11:10:08.625Z,5.43
2019-06-15T11:12:46.275Z,6.30
2019-06-15T11:15:28.922Z,6.03
2019-06-15T11:18:01.760Z,5.33
2019-06-15T11:20:48.819Z,5.90
2019-06-15T11:23:20.972Z,6.50
2019-06-15T11:25:53.095Z,7.23
2019-06-15T11:28:25.008Z,6.30
2019-06-15T11:30:58.717Z,6.57
2019-06-15T11:33:31.086Z,6.00
2019-06-15T11:36:05.426Z,6.37
2019-06-15T11:38:40.809Z,6.70
2019-06-15T11:41:15.388Z,6.30
2019-06-15T11:43:48.265Z,6.07
2019-06-15T11:46:22.133Z,6.10
2019-06-15T11:48:55.647Z,5.93
2019-06-15T11:51:29.127Z,6.43
2019-06-15T11:54:03.452Z,6.57
2019-06-15T11:56:36.197Z,5.97
2019-06-15T11:59:10.152Z,5.93
2019-06-15T12:01:45.068Z,5.50
2019-06-15T12:04:17.850Z,5.70
2019-06-15T12:06:51.050Z,6.00
2019-06-15T12:09:22.259Z,5.57
2019-06-15T12:11:56.042Z,6.03
2019-06-15T12:14:29.294Z,6.57
2019-06-15T12:17:02.290Z,5.90
2019-06-15T12:19:33.899Z,7.30
2019-06-15T12:22:06.450Z,6.07
2019-06-15T12:24:39.598Z,6.27
2019-06-15T12:27:12.241Z,6.67
2019-06-15T12:29:43.513Z,6.20
2019-06-15T12:32:17.493Z,5.57
2019-06-15T12:34:50.569Z,5.53
2019-06-15T12:37:21.966Z,6.37
2019-06-15T12:39:54.575Z,5.70
2019-06-15T12:42:25.836Z,5.63
2019-06-15T12:44:59.318Z,6.07
2019-06-15T12:47:32.672Z,5.80
2019-06-15T12:50:06.468Z,6.40
2019-06-15T12:52:39.340Z,5.30
2019-06-15T12:55:11.673Z,6.50
2019-06-15T12:57:44.612Z,6.00
2019-06-15T13:00:32.132Z,6.00
2019-06-15T13:03:06.204Z,5.80
2019-06-15T13:06:06.328Z,5.60
2019-06-15T13:08:38.632Z,7.37
2019-06-15T13:11:10.677Z,5.67
2019-06-15T13:13:42.743Z,6.97
2019-06-15T13:16:15.893Z,7.87
2019-06-15T13:18:53.879Z,5.90
2019-06-15T13:21:28.496Z,5.47
2019-06-15T13:24:01.778Z,5.67
2019-06-15T13:26:33.811Z,5.50
2019-06-15T13:29:09.488Z,6.50
2019-06-15T13:31:43.534Z,6.73
2019-06-15T13:34:17.428Z,7.60
2019-06-15T13:36:49.800Z,7.23
2019-06-15T13:39:22.736Z,6.70
2019-06-15T13:41:54.811Z,5.97
2019-06-15T13:44:27.805Z,6.87
2019-06-15T13:46:59.700Z,6.30
2019-06-15T13:49:30.971Z,7.10
2019-06-15T13:52:02.782Z,6.40
2019-06-15T13:54:37.146Z,6.53
2019-06-15T13:57:10.767Z,7.37
2019-06-15T13:59:43.872Z,7.10
2019-06-15T14:02:18.127Z,7.40
2019-06-15T14:04:51.815Z,7.97
2019-06-15T14:07:24.049Z,6.90
2019-06-15T14:09:58.058Z,10.53
2019-06-15T14:12:31.642Z,7.30
2019-06-15T14:15:03.307Z,6.60
2019-06-15T14:17:39.822Z,6.53
2019-06-15T14:20:12.679Z,8.57
2019-06-15T14:22:51.989Z,7.83
2019-06-15T14:25:27.019Z,6.87
2019-06-15T14:28:10.580Z,6.90
2019-06-15T14:30:44.041Z,6.87
2019-06-15T14:33:27.437Z,7.10
2019-06-15T14:36:00.121Z,6.10
2019-06-15T14:38:32.147Z,7.00
2019-06-15T14:41:04.287Z,6.70
2019-06-15T14:43:37.270Z,6.73
2019-06-15T14:46:09.040Z,6.40
2019-06-15T14:48:42.369Z,6.77
2019-06-15T14:51:15.944Z,6.60
2019-06-15T14:53:55.147Z,6.93
2019-06-15T14:56:24.127Z,5.97
2019-06-15T14:58:58.015Z,6.37
2019-06-15T15:01:34.747Z,6.83
2019-06-15T15:04:06.304Z,6.03
2019-06-15T15:06:39.194Z,6.20
2019-06-15T15:09:13.022Z,7.10
2019-06-15T15:11:47.216Z,7.23
2019-06-15T15:14:20.532Z,6.40
2019-06-15T15:16:53.303Z,6.30
2019-06-15T15:19:27.295Z,7.70
2019-06-15T15:22:03.036Z,6.40
2019-06-15T15:24:34.279Z,6.93
2019-06-15T15:27:08.438Z,5.97
2019-06-15T15:29:42.567Z,6.40
2019-06-15T15:32:27.506Z,6.33
2019-06-15T15:34:50.502Z,6.33
2019-06-15T15:37:23.525Z,7.63
2019-06-15T15:39:56.530Z,5.77
2019-06-15T15:42:28.535Z,6.10
2019-06-15T15:45:02.186Z,6.10
2019-06-15T15:47:36.071Z,6.00
2019-06-15T15:50:07.818Z,6.37
2019-06-15T15:52:42.065Z,7.73
2019-06-15T15:55:13.901Z,6.50
2019-06-15T15:58:06.713Z,7.00
2019-06-15T16:00:40.527Z,7.27
2019-06-15T16:03:16.003Z,6.50
2019-06-15T16:06:01.126Z,7.53
2019-06-15T16:08:33.907Z,7.30
2019-06-15T16:11:07.509Z,6.93
2019-06-15T16:13:40.637Z,7.70
2019-06-15T16:16:16.195Z,7.97
2019-06-15T16:18:49.548Z,7.10
2019-06-15T16:21:22.710Z,7.30
2019-06-15T16:23:58.035Z,6.90
2019-06-15T16:26:30.776Z,7.23
2019-06-15T16:29:06.703Z,7.50
2019-06-15T16:31:39.598Z,7.50
2019-06-15T16:34:16.126Z,7.33
2019-06-15T16:36:48.916Z,8.03
2019-06-15T16:39:21.859Z,7.90
2019-06-15T16:41:59.380Z,7.20
2019-06-15T16:44:30.664Z,6.80
2019-06-15T16:47:05.943Z,6.47
2019-06-15T16:49:38.767Z,7.57
2019-06-15T16:52:11.920Z,6.57
2019-06-15T16:54:47.117Z,8.40
2019-06-15T16:57:20.039Z,7.30
2019-06-15T16:59:51.944Z,6.43
2019-06-15T17:02:26.064Z,7.97
2019-06-15T17:04:57.933Z,8.93
2019-06-15T17:07:31.959Z,6.50
2019-06-15T17:10:06.390Z,7.20
2019-06-15T17:12:37.916Z,7.00
2019-06-15T17:15:18.242Z,6.40
2019-06-15T17:18:03.225Z,7.70
2019-06-15T17:20:47.965Z,8.73
2019-06-15T17:23:23.481Z,8.20
2019-06-15T17:26:00.913Z,7.53
2019-06-15T17:28:33.059Z,7.20
2019-06-15T17:31:17.439Z,6.67
2019-06-15T17:33:58.738Z,7.80
2019-06-15T17:36:38.417Z,7.93
2019-06-15T17:39:17.096Z,7.93
2019-06-15T17:41:50.158Z,7.60
2019-06-15T17:44:36.872Z,7.20
2019-06-15T17:47:17.439Z,8.07
2019-06-15T17:49:51.169Z,7.80
2019-06-15T17:52:26.397Z,7.83
2019-06-15T17:54:59.565Z,8.20
2019-06-15T17:57:31.292Z,7.80
2019-06-15T18:00:05.412Z,9.90
2019-06-15T18:02:39.276Z,8.13
2019-06-15T18:05:12.470Z,8.43
2019-06-15T18:07:47.007Z,9.30
2019-06-15T18:10:31.518Z,9.17
2019-06-15T18:13:10.864Z,8.30
2019-06-15T18:15:47.703Z,7.80
2019-06-15T18:18:19.247Z,7.63
2019-06-15T18:20:56.841Z,8.40
2019-06-15T18:23:31.517Z,9.50
2019-06-15T18:26:06.987Z,9.60
2019-06-15T18:28:39.442Z,8.13
2019-06-15T18:31:13.352Z,8.80
2019-06-15T18:33:47.349Z,8.70
2019-06-15T18:36:21.703Z,7.57
2019-06-15T18:38:54.463Z,7.73
2019-06-15T18:41:26.703Z,8.20
2019-06-15T18:43:59.450Z,8.57
2019-06-15T18:46:33.386Z,7.17
2019-06-15T18:49:09.436Z,8.03
2019-06-15T18:51:46.106Z,8.13
2019-06-15T18:54:18.391Z,7.97
2019-06-15T18:56:51.844Z,8.50
2019-06-15T18:59:25.958Z,8.40
2019-06-15T19:01:57.497Z,9.83
2019-06-15T19:04:31.073Z,8.50
2019-06-15T19:07:02.559Z,8.50
2019-06-15T19:09:33.765Z,8.30
2019-06-15T19:12:07.355Z,8.83
2019-06-15T19:14:38.558Z,7.40
2019-06-15T19:17:10.642Z,8.33
2019-06-15T19:19:42.589Z,8.30
2019-06-15T19:22:17.174Z,6.67
2019-06-15T19:24:50.656Z,7.97
2019-06-15T19:27:25.817Z,7.20
2019-06-15T19:29:59.478Z,6.00
2019-06-15T19:32:32.929Z,6.37
2019-06-15T19:35:05.416Z,7.23
2019-06-15T19:37:37.188Z,6.30
2019-06-15T19:40:12.990Z,6.47
2019-06-15T19:42:58.712Z,4.93
2019-06-15T19:45:37.014Z,5.23
2019-06-15T19:48:08.824Z,5.93
2019-06-15T19:50:42.148Z,6.50
2019-06-15T19:53:14.061Z,6.00
2019-06-15T19:55:50.494Z,5.00
2019-06-15T19:58:26.264Z,4.73
2019-06-15T20:00:59.865Z,4.33
2019-06-15T20:03:36.281Z,4.77
2019-06-15T20:06:08.936Z,5.50
2019-06-15T20:08:41.911Z,4.63
2019-06-15T20:11:17.551Z,5.57
2019-06-15T20:13:48.862Z,5.00
2019-06-15T20:16:23.794Z,5.70
2019-06-15T20:18:56.297Z,5.80
2019-06-15T20:21:30.026Z,4.40
2019-06-15T20:24:06.184Z,4.07
2019-06-15T20:26:38.971Z,4.27
2019-06-15T20:29:11.961Z,5.13
2019-06-15T20:31:46.336Z,4.97
2019-06-15T20:34:19.160Z,4.60
2019-06-15T20:36:51.237Z,4.90
2019-06-15T20:39:29.168Z,4.30
2019-06-15T20:42:02.116Z,4.60
2019-06-15T20:44:33.584Z,4.37
2019-06-15T20:47:14.709Z,4.37
2019-06-15T20:49:47.099Z,4.27
2019-06-15T20:52:21.199Z,4.60
2019-06-15T20:54:57.067Z,3.50
2019-06-15T20:57:30.047Z,3.60
2019-06-15T21:00:06.233Z,4.00
2019-06-15T21:02:38.348Z,3.40
2019-06-15T21:05:37.168Z,4.30
2019-06-15T21:08:02.754Z,4.13
2019-06-15T21:10:39.943Z,3.97
2019-06-15T21:13:13.299Z,4.43
2019-06-15T21:15:47.650Z,4.40
2019-06-15T21:18:20.181Z,4.17
2019-06-15T21:21:07.032Z,4.83
2019-06-15T21:23:40.310Z,4.30
2019-06-15T21:26:11.505Z,4.27
2019-06-15T21:28:57.839Z,4.53
2019-06-15T21:31:46.253Z,4.40
2019-06-15T21:34:17.501Z,3.30
2019-06-15T21:36:49.225Z,4.03
2019-06-15T21:39:22.569Z,4.20
2019-06-15T21:41:57.068Z,4.50
2019-06-15T21:44:29.395Z,3.60
2019-06-15T21:47:01.714Z,4.03
2019-06-15T21:49:35.841Z,4.87
2019-06-15T21:52:10.551Z,4.07
2019-06-15T21:54:49.756Z,4.47
2019-06-15T21:57:23.744Z,3.77
2019-06-15T21:59:57.590Z,4.30
2019-06-15T22:02:33.006Z,3.73
2019-06-15T22:05:07.082Z,4.20
2019-06-15T22:07:41.759Z,4.30
2019-06-15T22:10:30.480Z,3.90
2019-06-15T22:13:03.579Z,3.87
2019-06-15T22:15:42.556Z,4.00
2019-06-15T22:18:16.700Z,4.00
2019-06-15T22:20:48.514Z,4.20
2019-06-15T22:23:21.690Z,4.07
2019-06-15T22:25:57.243Z,4.43
2019-06-15T22:28:31.666Z,4.50
2019-06-15T22:31:06.443Z,4.60
2019-06-15T22:33:40.674Z,4.97
2019-06-15T22:36:24.850Z,4.47
2019-06-15T22:38:52.955Z,4.57
2019-06-15T22:41:26.870Z,4.53
2019-06-15T22:43:59.658Z,4.90
2019-06-15T22:46:33.804Z,4.50
2019-06-15T22:49:08.513Z,4.63
2019-06-15T22:51:42.139Z,4.07
2019-06-15T22:54:16.684Z,4.10
2019-06-15T22:56:50.059Z,4.63
2019-06-15T22:59:22.691Z,4.77
2019-06-15T23:01:57.518Z,4.77
2019-06-15T23:04:33.555Z,4.93
2019-06-15T23:07:07.750Z,4.10
2019-06-15T23:09:41.025Z,4.50
2019-06-15T23:12:15.541Z,4.03
2019-06-15T23:14:47.858Z,4.60
2019-06-15T23:17:23.938Z,4.30
2019-06-15T23:19:57.170Z,4.83
2019-06-15T23:22:32.208Z,4.30
2019-06-15T23:25:07.418Z,5.23
2019-06-15T23:27:38.933Z,4.23
2019-06-15T23:30:11.622Z,5.03
2019-06-15T23:32:48.684Z,4.63
2019-06-15T23:35:37.039Z,4.20
2019-06-15T23:38:09.806Z,4.20
2019-06-15T23:40:42.180Z,4.50
2019-06-15T23:43:16.719Z,4.53
2019-06-15T23:45:50.154Z,4.20
2019-06-15T23:48:23.137Z,4.30
2019-06-15T23:50:56.967Z,3.90
2019-06-15T23:53:29.393Z,4.20
2019-06-15T23:56:01.607Z,3.90
2019-06-15T23:58:33.234Z,4.40
